sensor_id;sensor_type;location;lat;lon;timestamp;P1;durP1;ratioP1;P2;durP2;ratioP2
22715;SDS011;11525;51.152;4.456;2022-11-04T00:01:45;16.63;;;8.38;;
22715;SDS011;11525;51.152;4.456;2022-11-04T00:04:12;15.93;;;8.05;;
22715;SDS011;11525;51.152;4.456;2022-11-04T00:06:39;24.67;;;7.50;;
22715;SDS011;11525;51.152;4.456;2022-11-04T00:09:06;14.13;;;7.78;;
22715;SDS011;11525;51.152;4.456;2022-11-04T00:11:34;12.65;;;7.53;;
22715;SDS011;11525;51.152;4.456;2022-11-04T00:14:19;12.82;;;6.97;;
22715;SDS011;11525;51.152;4.456;2022-11-04T00:16:45;13.77;;;6.93;;
22715;SDS011;11525;51.152;4.456;2022-11-04T00:19:30;10.20;;;6.38;;
22715;SDS011;11525;51.152;4.456;2022-11-04T00:22:16;13.98;;;6.45;;
22715;SDS011;11525;51.152;4.456;2022-11-04T00:25:01;13.05;;;6.75;;
22715;SDS011;11525;51.152;4.456;2022-11-04T00:27:46;8.82;;;6.18;;
22715;SDS011;11525;51.152;4.456;2022-11-04T00:30:30;9.40;;;6.07;;
22715;SDS011;11525;51.152;4.456;2022-11-04T00:32:56;13.18;;;6.07;;
22715;SDS011;11525;51.152;4.456;2022-11-04T00:35:40;12.02;;;6.30;;
22715;SDS011;11525;51.152;4.456;2022-11-04T00:38:12;13.23;;;5.22;;
22715;SDS011;11525;51.152;4.456;2022-11-04T00:40:40;10.13;;;6.00;;
22715;SDS011;11525;51.152;4.456;2022-11-04T00:43:06;9.95;;;4.75;;
22715;SDS011;11525;51.152;4.456;2022-11-04T00:45:32;10.90;;;5.80;;
22715;SDS011;11525;51.152;4.456;2022-11-04T00:48:01;12.93;;;5.25;;
22715;SDS011;11525;51.152;4.456;2022-11-04T00:50:27;6.80;;;4.43;;
22715;SDS011;11525;51.152;4.456;2022-11-04T00:53:02;9.30;;;4.82;;
22715;SDS011;11525;51.152;4.456;2022-11-04T00:55:28;13.80;;;4.60;;
22715;SDS011;11525;51.152;4.456;2022-11-04T00:57:54;13.77;;;4.68;;
22715;SDS011;11525;51.152;4.456;2022-11-04T01:00:22;8.30;;;4.53;;
22715;SDS011;11525;51.152;4.456;2022-11-04T01:02:47;11.50;;;3.92;;
22715;SDS011;11525;51.152;4.456;2022-11-04T01:05:13;9.90;;;4.38;;
22715;SDS011;11525;51.152;4.456;2022-11-04T01:07:40;9.55;;;4.22;;
22715;SDS011;11525;51.152;4.456;2022-11-04T01:10:06;8.95;;;4.25;;
22715;SDS011;11525;51.152;4.456;2022-11-04T01:12:32;11.52;;;4.03;;
22715;SDS011;11525;51.152;4.456;2022-11-04T01:14:58;9.65;;;4.30;;
22715;SDS011;11525;51.152;4.456;2022-11-04T01:17:28;8.75;;;4.32;;
22715;SDS011;11525;51.152;4.456;2022-11-04T01:19:53;10.43;;;4.30;;
22715;SDS011;11525;51.152;4.456;2022-11-04T01:22:19;10.65;;;3.97;;
22715;SDS011;11525;51.152;4.456;2022-11-04T01:24:45;9.77;;;4.55;;
22715;SDS011;11525;51.152;4.456;2022-11-04T01:27:11;10.73;;;3.90;;
22715;SDS011;11525;51.152;4.456;2022-11-04T01:29:40;8.15;;;3.83;;
22715;SDS011;11525;51.152;4.456;2022-11-04T01:32:06;7.07;;;3.42;;
22715;SDS011;11525;51.152;4.456;2022-11-04T01:34:32;10.38;;;3.72;;
22715;SDS011;11525;51.152;4.456;2022-11-04T01:37:01;9.60;;;4.15;;
22715;SDS011;11525;51.152;4.456;2022-11-04T01:39:27;7.57;;;3.78;;
22715;SDS011;11525;51.152;4.456;2022-11-04T01:41:53;7.65;;;3.78;;
22715;SDS011;11525;51.152;4.456;2022-11-04T01:47:28;9.00;;;3.50;;
22715;SDS011;11525;51.152;4.456;2022-11-04T01:53:15;9.90;;;3.42;;
22715;SDS011;11525;51.152;4.456;2022-11-04T01:55:26;8.50;;;3.63;;
22715;SDS011;11525;51.152;4.456;2022-11-04T01:57:58;7.20;;;3.45;;
22715;SDS011;11525;51.152;4.456;2022-11-04T02:00:28;7.38;;;3.30;;
22715;SDS011;11525;51.152;4.456;2022-11-04T02:02:58;10.30;;;3.20;;
22715;SDS011;11525;51.152;4.456;2022-11-04T02:05:30;14.95;;;3.53;;
22715;SDS011;11525;51.152;4.456;2022-11-04T02:07:57;8.77;;;3.40;;
22715;SDS011;11525;51.152;4.456;2022-11-04T02:10:28;10.70;;;3.53;;
22715;SDS011;11525;51.152;4.456;2022-11-04T02:12:54;15.70;;;3.33;;
22715;SDS011;11525;51.152;4.456;2022-11-04T02:18:33;10.70;;;3.10;;
22715;SDS011;11525;51.152;4.456;2022-11-04T02:24:24;13.68;;;3.30;;
22715;SDS011;11525;51.152;4.456;2022-11-04T02:27:27;11.02;;;3.08;;
22715;SDS011;11525;51.152;4.456;2022-11-04T02:30:12;9.32;;;3.58;;
22715;SDS011;11525;51.152;4.456;2022-11-04T02:38:31;17.38;;;3.80;;
22715;SDS011;11525;51.152;4.456;2022-11-04T02:41:05;11.00;;;3.53;;
22715;SDS011;11525;51.152;4.456;2022-11-04T02:46:41;13.02;;;4.00;;
22715;SDS011;11525;51.152;4.456;2022-11-04T02:49:34;9.65;;;3.20;;
22715;SDS011;11525;51.152;4.456;2022-11-04T02:52:09;15.23;;;4.43;;
22715;SDS011;11525;51.152;4.456;2022-11-04T02:54:49;13.82;;;3.30;;
22715;SDS011;11525;51.152;4.456;2022-11-04T02:57:41;12.75;;;3.38;;
22715;SDS011;11525;51.152;4.456;2022-11-04T03:00:11;8.98;;;3.50;;
22715;SDS011;11525;51.152;4.456;2022-11-04T03:02:44;16.50;;;3.40;;
22715;SDS011;11525;51.152;4.456;2022-11-04T03:05:17;13.73;;;2.97;;
22715;SDS011;11525;51.152;4.456;2022-11-04T03:07:46;7.38;;;3.70;;
22715;SDS011;11525;51.152;4.456;2022-11-04T03:10:17;9.15;;;3.78;;
22715;SDS011;11525;51.152;4.456;2022-11-04T03:13:01;13.80;;;3.60;;
22715;SDS011;11525;51.152;4.456;2022-11-04T03:15:41;15.60;;;3.10;;
22715;SDS011;11525;51.152;4.456;2022-11-04T03:21:19;13.52;;;3.40;;
22715;SDS011;11525;51.152;4.456;2022-11-04T03:23:47;10.13;;;3.60;;
22715;SDS011;11525;51.152;4.456;2022-11-04T03:26:25;8.63;;;3.50;;
22715;SDS011;11525;51.152;4.456;2022-11-04T03:29:12;12.20;;;3.40;;
22715;SDS011;11525;51.152;4.456;2022-11-04T03:31:58;12.43;;;3.55;;
22715;SDS011;11525;51.152;4.456;2022-11-04T03:34:30;16.02;;;3.97;;
22715;SDS011;11525;51.152;4.456;2022-11-04T03:36:56;14.32;;;3.83;;
22715;SDS011;11525;51.152;4.456;2022-11-04T03:39:22;13.75;;;4.05;;
22715;SDS011;11525;51.152;4.456;2022-11-04T03:41:50;9.48;;;3.83;;
22715;SDS011;11525;51.152;4.456;2022-11-04T03:44:19;14.13;;;3.72;;
22715;SDS011;11525;51.152;4.456;2022-11-04T03:46:46;12.13;;;3.63;;
22715;SDS011;11525;51.152;4.456;2022-11-04T03:49:12;8.70;;;3.53;;
22715;SDS011;11525;51.152;4.456;2022-11-04T03:51:39;12.18;;;4.20;;
22715;SDS011;11525;51.152;4.456;2022-11-04T03:54:05;12.45;;;3.72;;
22715;SDS011;11525;51.152;4.456;2022-11-04T03:56:39;10.70;;;3.75;;
22715;SDS011;11525;51.152;4.456;2022-11-04T03:59:23;14.45;;;3.97;;
22715;SDS011;11525;51.152;4.456;2022-11-04T04:02:19;13.60;;;4.18;;
22715;SDS011;11525;51.152;4.456;2022-11-04T04:07:34;12.65;;;3.55;;
22715;SDS011;11525;51.152;4.456;2022-11-04T04:12:59;11.50;;;3.40;;
22715;SDS011;11525;51.152;4.456;2022-11-04T04:15:33;10.32;;;3.25;;
22715;SDS011;11525;51.152;4.456;2022-11-04T04:18:12;11.82;;;3.72;;
22715;SDS011;11525;51.152;4.456;2022-11-04T04:20:40;11.93;;;4.00;;
22715;SDS011;11525;51.152;4.456;2022-11-04T04:23:13;13.40;;;4.72;;
22715;SDS011;11525;51.152;4.456;2022-11-04T04:26:02;11.50;;;4.32;;
22715;SDS011;11525;51.152;4.456;2022-11-04T04:28:49;15.82;;;3.60;;
22715;SDS011;11525;51.152;4.456;2022-11-04T04:31:17;10.27;;;4.15;;
22715;SDS011;11525;51.152;4.456;2022-11-04T04:34:03;13.80;;;4.10;;
22715;SDS011;11525;51.152;4.456;2022-11-04T04:36:30;11.73;;;4.57;;
22715;SDS011;11525;51.152;4.456;2022-11-04T04:39:04;12.88;;;4.07;;
22715;SDS011;11525;51.152;4.456;2022-11-04T04:41:51;10.30;;;3.85;;
22715;SDS011;11525;51.152;4.456;2022-11-04T04:44:42;14.45;;;4.18;;
22715;SDS011;11525;51.152;4.456;2022-11-04T04:47:35;15.15;;;4.22;;
22715;SDS011;11525;51.152;4.456;2022-11-04T04:50:08;18.42;;;4.70;;
22715;SDS011;11525;51.152;4.456;2022-11-04T04:52:42;15.20;;;4.75;;
22715;SDS011;11525;51.152;4.456;2022-11-04T04:55:10;12.43;;;4.00;;
22715;SDS011;11525;51.152;4.456;2022-11-04T04:57:37;18.40;;;4.57;;
22715;SDS011;11525;51.152;4.456;2022-11-04T05:00:03;11.32;;;4.20;;
22715;SDS011;11525;51.152;4.456;2022-11-04T05:02:31;12.10;;;3.90;;
22715;SDS011;11525;51.152;4.456;2022-11-04T05:04:57;10.65;;;3.60;;
22715;SDS011;11525;51.152;4.456;2022-11-04T05:07:23;13.82;;;3.60;;
22715;SDS011;11525;51.152;4.456;2022-11-04T05:09:50;15.45;;;4.60;;
22715;SDS011;11525;51.152;4.456;2022-11-04T05:12:16;12.50;;;4.57;;
22715;SDS011;11525;51.152;4.456;2022-11-04T05:14:42;16.42;;;4.30;;
22715;SDS011;11525;51.152;4.456;2022-11-04T05:17:08;15.38;;;4.28;;
22715;SDS011;11525;51.152;4.456;2022-11-04T05:19:34;9.10;;;3.63;;
22715;SDS011;11525;51.152;4.456;2022-11-04T05:22:04;9.13;;;4.22;;
22715;SDS011;11525;51.152;4.456;2022-11-04T05:24:35;15.48;;;5.68;;
22715;SDS011;11525;51.152;4.456;2022-11-04T05:27:01;12.98;;;4.47;;
22715;SDS011;11525;51.152;4.456;2022-11-04T05:29:27;13.80;;;4.32;;
22715;SDS011;11525;51.152;4.456;2022-11-04T05:31:53;10.95;;;4.03;;
22715;SDS011;11525;51.152;4.456;2022-11-04T05:34:19;12.70;;;4.10;;
22715;SDS011;11525;51.152;4.456;2022-11-04T05:36:45;10.40;;;3.97;;
22715;SDS011;11525;51.152;4.456;2022-11-04T05:39:11;13.18;;;4.35;;
22715;SDS011;11525;51.152;4.456;2022-11-04T05:41:37;14.52;;;4.13;;
22715;SDS011;11525;51.152;4.456;2022-11-04T05:44:07;7.70;;;4.07;;
22715;SDS011;11525;51.152;4.456;2022-11-04T05:46:34;7.32;;;3.75;;
22715;SDS011;11525;51.152;4.456;2022-11-04T05:49:03;12.98;;;4.00;;
22715;SDS011;11525;51.152;4.456;2022-11-04T05:51:29;11.98;;;3.90;;
22715;SDS011;11525;51.152;4.456;2022-11-04T05:53:55;13.43;;;5.05;;
22715;SDS011;11525;51.152;4.456;2022-11-04T05:56:21;11.30;;;3.67;;
22715;SDS011;11525;51.152;4.456;2022-11-04T05:58:47;7.18;;;3.42;;
22715;SDS011;11525;51.152;4.456;2022-11-04T06:04:00;11.32;;;4.32;;
22715;SDS011;11525;51.152;4.456;2022-11-04T06:06:29;9.60;;;4.35;;
22715;SDS011;11525;51.152;4.456;2022-11-04T06:09:00;13.32;;;4.68;;
22715;SDS011;11525;51.152;4.456;2022-11-04T06:11:28;12.73;;;4.30;;
22715;SDS011;11525;51.152;4.456;2022-11-04T06:13:54;9.77;;;3.90;;
22715;SDS011;11525;51.152;4.456;2022-11-04T06:16:21;12.68;;;4.15;;
22715;SDS011;11525;51.152;4.456;2022-11-04T06:18:50;9.73;;;4.20;;
22715;SDS011;11525;51.152;4.456;2022-11-04T06:23:46;7.40;;;3.85;;
22715;SDS011;11525;51.152;4.456;2022-11-04T06:26:12;11.82;;;4.68;;
22715;SDS011;11525;51.152;4.456;2022-11-04T06:28:39;13.65;;;4.70;;
22715;SDS011;11525;51.152;4.456;2022-11-04T06:31:05;10.95;;;4.35;;
22715;SDS011;11525;51.152;4.456;2022-11-04T06:33:33;15.15;;;5.15;;
22715;SDS011;11525;51.152;4.456;2022-11-04T06:35:59;14.32;;;4.53;;
22715;SDS011;11525;51.152;4.456;2022-11-04T06:38:28;15.75;;;6.22;;
22715;SDS011;11525;51.152;4.456;2022-11-04T06:40:56;14.55;;;6.22;;
22715;SDS011;11525;51.152;4.456;2022-11-04T06:43:22;17.65;;;6.18;;
22715;SDS011;11525;51.152;4.456;2022-11-04T06:45:54;14.40;;;6.07;;
22715;SDS011;11525;51.152;4.456;2022-11-04T06:48:21;19.98;;;11.13;;
22715;SDS011;11525;51.152;4.456;2022-11-04T06:50:47;29.17;;;14.02;;
22715;SDS011;11525;51.152;4.456;2022-11-04T06:53:13;24.20;;;14.75;;
22715;SDS011;11525;51.152;4.456;2022-11-04T06:55:38;28.00;;;15.30;;
22715;SDS011;11525;51.152;4.456;2022-11-04T06:58:04;21.70;;;14.60;;
22715;SDS011;11525;51.152;4.456;2022-11-04T07:00:30;28.70;;;15.40;;
22715;SDS011;11525;51.152;4.456;2022-11-04T07:02:56;20.95;;;12.57;;
22715;SDS011;11525;51.152;4.456;2022-11-04T07:05:22;22.50;;;11.63;;
22715;SDS011;11525;51.152;4.456;2022-11-04T07:07:48;18.42;;;9.93;;
22715;SDS011;11525;51.152;4.456;2022-11-04T07:10:14;14.43;;;9.73;;
22715;SDS011;11525;51.152;4.456;2022-11-04T07:12:41;17.98;;;9.55;;
22715;SDS011;11525;51.152;4.456;2022-11-04T07:15:07;16.88;;;9.98;;
22715;SDS011;11525;51.152;4.456;2022-11-04T07:17:34;20.55;;;11.25;;
22715;SDS011;11525;51.152;4.456;2022-11-04T07:20:00;39.00;;;11.80;;
22715;SDS011;11525;51.152;4.456;2022-11-04T07:22:25;21.70;;;11.27;;
22715;SDS011;11525;51.152;4.456;2022-11-04T07:24:51;15.57;;;10.30;;
22715;SDS011;11525;51.152;4.456;2022-11-04T07:27:17;19.83;;;10.30;;
22715;SDS011;11525;51.152;4.456;2022-11-04T07:29:46;14.60;;;8.65;;
22715;SDS011;11525;51.152;4.456;2022-11-04T07:32:12;13.20;;;8.52;;
22715;SDS011;11525;51.152;4.456;2022-11-04T07:34:38;23.52;;;11.38;;
22715;SDS011;11525;51.152;4.456;2022-11-04T07:37:04;16.70;;;9.32;;
22715;SDS011;11525;51.152;4.456;2022-11-04T07:39:30;18.35;;;9.82;;
22715;SDS011;11525;51.152;4.456;2022-11-04T07:41:56;14.68;;;8.02;;
22715;SDS011;11525;51.152;4.456;2022-11-04T07:44:22;26.30;;;10.05;;
22715;SDS011;11525;51.152;4.456;2022-11-04T07:46:48;22.27;;;9.93;;
22715;SDS011;11525;51.152;4.456;2022-11-04T07:49:14;25.70;;;9.68;;
22715;SDS011;11525;51.152;4.456;2022-11-04T07:51:43;23.63;;;10.40;;
22715;SDS011;11525;51.152;4.456;2022-11-04T07:54:12;15.80;;;8.90;;
22715;SDS011;11525;51.152;4.456;2022-11-04T07:56:38;14.15;;;7.47;;
22715;SDS011;11525;51.152;4.456;2022-11-04T07:59:05;21.58;;;8.73;;
22715;SDS011;11525;51.152;4.456;2022-11-04T08:01:31;20.45;;;7.65;;
22715;SDS011;11525;51.152;4.456;2022-11-04T08:03:57;13.50;;;5.90;;
22715;SDS011;11525;51.152;4.456;2022-11-04T08:06:23;9.48;;;5.93;;
22715;SDS011;11525;51.152;4.456;2022-11-04T08:08:49;8.55;;;5.22;;
22715;SDS011;11525;51.152;4.456;2022-11-04T08:11:18;17.80;;;8.75;;
22715;SDS011;11525;51.152;4.456;2022-11-04T08:13:47;13.18;;;7.88;;
22715;SDS011;11525;51.152;4.456;2022-11-04T08:16:14;25.95;;;8.68;;
22715;SDS011;11525;51.152;4.456;2022-11-04T08:18:43;8.63;;;4.95;;
22715;SDS011;11525;51.152;4.456;2022-11-04T08:21:09;14.02;;;5.90;;
22715;SDS011;11525;51.152;4.456;2022-11-04T08:23:36;14.07;;;5.47;;
22715;SDS011;11525;51.152;4.456;2022-11-04T08:26:06;12.73;;;5.50;;
22715;SDS011;11525;51.152;4.456;2022-11-04T08:28:33;16.58;;;5.93;;
22715;SDS011;11525;51.152;4.456;2022-11-04T08:31:03;11.98;;;5.38;;
22715;SDS011;11525;51.152;4.456;2022-11-04T08:33:35;9.35;;;4.88;;
22715;SDS011;11525;51.152;4.456;2022-11-04T08:36:02;11.70;;;5.53;;
22715;SDS011;11525;51.152;4.456;2022-11-04T08:38:37;14.63;;;5.43;;
22715;SDS011;11525;51.152;4.456;2022-11-04T08:41:04;9.70;;;5.88;;
22715;SDS011;11525;51.152;4.456;2022-11-04T08:43:31;14.27;;;5.57;;
22715;SDS011;11525;51.152;4.456;2022-11-04T08:45:58;13.60;;;6.05;;
22715;SDS011;11525;51.152;4.456;2022-11-04T08:48:25;17.10;;;6.85;;
22715;SDS011;11525;51.152;4.456;2022-11-04T08:50:54;21.45;;;6.35;;
22715;SDS011;11525;51.152;4.456;2022-11-04T08:53:22;10.50;;;5.80;;
22715;SDS011;11525;51.152;4.456;2022-11-04T08:55:49;12.70;;;5.70;;
22715;SDS011;11525;51.152;4.456;2022-11-04T08:58:16;16.15;;;6.70;;
22715;SDS011;11525;51.152;4.456;2022-11-04T09:00:42;14.05;;;6.68;;
22715;SDS011;11525;51.152;4.456;2022-11-04T09:03:08;12.48;;;6.45;;
22715;SDS011;11525;51.152;4.456;2022-11-04T09:05:38;19.05;;;6.47;;
22715;SDS011;11525;51.152;4.456;2022-11-04T09:08:12;10.35;;;6.05;;
22715;SDS011;11525;51.152;4.456;2022-11-04T09:10:41;16.33;;;6.25;;
22715;SDS011;11525;51.152;4.456;2022-11-04T09:13:09;12.07;;;6.13;;
22715;SDS011;11525;51.152;4.456;2022-11-04T09:15:36;14.23;;;5.53;;
22715;SDS011;11525;51.152;4.456;2022-11-04T09:18:03;14.77;;;6.10;;
22715;SDS011;11525;51.152;4.456;2022-11-04T09:20:29;12.60;;;5.95;;
22715;SDS011;11525;51.152;4.456;2022-11-04T09:22:56;18.30;;;5.90;;
22715;SDS011;11525;51.152;4.456;2022-11-04T09:25:22;11.85;;;6.05;;
22715;SDS011;11525;51.152;4.456;2022-11-04T09:27:51;12.32;;;5.75;;
22715;SDS011;11525;51.152;4.456;2022-11-04T09:30:17;13.32;;;5.50;;
22715;SDS011;11525;51.152;4.456;2022-11-04T09:32:43;8.43;;;5.05;;
22715;SDS011;11525;51.152;4.456;2022-11-04T09:35:09;14.10;;;5.65;;
22715;SDS011;11525;51.152;4.456;2022-11-04T09:37:35;14.30;;;6.28;;
22715;SDS011;11525;51.152;4.456;2022-11-04T09:40:01;16.33;;;5.82;;
22715;SDS011;11525;51.152;4.456;2022-11-04T09:42:36;11.50;;;5.00;;
22715;SDS011;11525;51.152;4.456;2022-11-04T09:45:25;18.67;;;5.85;;
22715;SDS011;11525;51.152;4.456;2022-11-04T09:48:02;18.13;;;7.28;;
22715;SDS011;11525;51.152;4.456;2022-11-04T09:50:34;14.50;;;6.90;;
22715;SDS011;11525;51.152;4.456;2022-11-04T09:55:59;17.15;;;8.07;;
22715;SDS011;11525;51.152;4.456;2022-11-04T09:58:30;17.00;;;8.82;;
22715;SDS011;11525;51.152;4.456;2022-11-04T10:01:10;19.77;;;9.50;;
22715;SDS011;11525;51.152;4.456;2022-11-04T10:03:47;16.55;;;9.25;;
22715;SDS011;11525;51.152;4.456;2022-11-04T10:06:48;18.25;;;10.60;;
22715;SDS011;11525;51.152;4.456;2022-11-04T10:20:51;19.85;;;10.80;;
22715;SDS011;11525;51.152;4.456;2022-11-04T10:26:17;14.10;;;11.30;;
22715;SDS011;11525;51.152;4.456;2022-11-04T10:28:54;22.73;;;11.82;;
22715;SDS011;11525;51.152;4.456;2022-11-04T10:31:25;22.67;;;11.63;;
22715;SDS011;11525;51.152;4.456;2022-11-04T10:33:58;18.92;;;12.48;;
22715;SDS011;11525;51.152;4.456;2022-11-04T10:36:32;23.05;;;11.88;;
22715;SDS011;11525;51.152;4.456;2022-11-04T10:39:01;19.42;;;11.45;;
22715;SDS011;11525;51.152;4.456;2022-11-04T10:41:33;18.50;;;12.23;;
22715;SDS011;11525;51.152;4.456;2022-11-04T10:44:04;30.60;;;14.05;;
22715;SDS011;11525;51.152;4.456;2022-11-04T10:52:16;24.73;;;12.70;;
22715;SDS011;11525;51.152;4.456;2022-11-04T10:54:44;29.75;;;13.13;;
22715;SDS011;11525;51.152;4.456;2022-11-04T10:57:13;23.42;;;14.50;;
22715;SDS011;11525;51.152;4.456;2022-11-04T10:59:49;17.90;;;12.60;;
22715;SDS011;11525;51.152;4.456;2022-11-04T11:05:19;22.02;;;12.90;;
22715;SDS011;11525;51.152;4.456;2022-11-04T11:07:53;24.67;;;13.18;;
22715;SDS011;11525;51.152;4.456;2022-11-04T11:10:27;24.58;;;13.50;;
22715;SDS011;11525;51.152;4.456;2022-11-04T11:12:56;20.95;;;13.27;;
22715;SDS011;11525;51.152;4.456;2022-11-04T11:17:48;21.70;;;12.55;;
22715;SDS011;11525;51.152;4.456;2022-11-04T11:20:20;23.88;;;13.80;;
22715;SDS011;11525;51.152;4.456;2022-11-04T11:22:50;24.38;;;12.82;;
22715;SDS011;11525;51.152;4.456;2022-11-04T11:25:25;28.27;;;15.73;;
22715;SDS011;11525;51.152;4.456;2022-11-04T11:28:00;22.90;;;16.10;;
22715;SDS011;11525;51.152;4.456;2022-11-04T11:30:34;34.47;;;16.48;;
22715;SDS011;11525;51.152;4.456;2022-11-04T11:33:17;23.92;;;14.82;;
22715;SDS011;11525;51.152;4.456;2022-11-04T11:36:07;25.40;;;16.80;;
22715;SDS011;11525;51.152;4.456;2022-11-04T11:38:50;30.40;;;16.70;;
22715;SDS011;11525;51.152;4.456;2022-11-04T11:41:20;21.80;;;15.88;;
22715;SDS011;11525;51.152;4.456;2022-11-04T11:43:55;26.17;;;17.35;;
22715;SDS011;11525;51.152;4.456;2022-11-04T11:46:24;22.67;;;15.48;;
22715;SDS011;11525;51.152;4.456;2022-11-04T11:48:53;25.15;;;15.57;;
22715;SDS011;11525;51.152;4.456;2022-11-04T11:54:27;24.63;;;15.23;;
22715;SDS011;11525;51.152;4.456;2022-11-04T11:56:58;19.27;;;14.13;;
22715;SDS011;11525;51.152;4.456;2022-11-04T11:59:45;24.23;;;16.05;;
22715;SDS011;11525;51.152;4.456;2022-11-04T12:02:33;21.23;;;16.38;;
22715;SDS011;11525;51.152;4.456;2022-11-04T12:23:17;23.98;;;19.85;;
22715;SDS011;11525;51.152;4.456;2022-11-04T12:25:57;29.80;;;19.15;;
22715;SDS011;11525;51.152;4.456;2022-11-04T12:34:52;21.52;;;15.38;;
22715;SDS011;11525;51.152;4.456;2022-11-04T12:37:49;23.80;;;15.60;;
22715;SDS011;11525;51.152;4.456;2022-11-04T12:40:44;18.90;;;13.52;;
22715;SDS011;11525;51.152;4.456;2022-11-04T12:46:03;21.52;;;15.07;;
22715;SDS011;11525;51.152;4.456;2022-11-04T12:48:57;19.65;;;13.85;;
22715;SDS011;11525;51.152;4.456;2022-11-04T12:55:02;26.88;;;14.82;;
22715;SDS011;11525;51.152;4.456;2022-11-04T13:00:26;19.77;;;11.27;;
22715;SDS011;11525;51.152;4.456;2022-11-04T13:06:04;21.10;;;11.68;;
22715;SDS011;11525;51.152;4.456;2022-11-04T13:08:49;19.92;;;10.13;;
22715;SDS011;11525;51.152;4.456;2022-11-04T13:11:30;16.65;;;8.73;;
22715;SDS011;11525;51.152;4.456;2022-11-04T13:14:03;13.50;;;8.27;;
22715;SDS011;11525;51.152;4.456;2022-11-04T13:16:59;14.57;;;8.00;;
22715;SDS011;11525;51.152;4.456;2022-11-04T13:19:50;14.50;;;7.20;;
22715;SDS011;11525;51.152;4.456;2022-11-04T13:22:20;12.80;;;6.05;;
22715;SDS011;11525;51.152;4.456;2022-11-04T13:24:54;9.70;;;3.67;;
22715;SDS011;11525;51.152;4.456;2022-11-04T13:27:25;7.10;;;3.15;;
22715;SDS011;11525;51.152;4.456;2022-11-04T13:30:14;8.65;;;3.00;;
22715;SDS011;11525;51.152;4.456;2022-11-04T13:33:00;9.88;;;2.80;;
22715;SDS011;11525;51.152;4.456;2022-11-04T13:38:09;2.30;;;2.08;;
22715;SDS011;11525;51.152;4.456;2022-11-04T13:43:33;9.45;;;2.65;;
22715;SDS011;11525;51.152;4.456;2022-11-04T13:48:34;7.80;;;2.65;;
22715;SDS011;11525;51.152;4.456;2022-11-04T13:51:05;6.68;;;2.35;;
22715;SDS011;11525;51.152;4.456;2022-11-04T13:53:48;4.43;;;1.80;;
22715;SDS011;11525;51.152;4.456;2022-11-04T13:56:31;5.03;;;2.67;;
22715;SDS011;11525;51.152;4.456;2022-11-04T14:02:07;4.03;;;1.95;;
22715;SDS011;11525;51.152;4.456;2022-11-04T14:07:05;6.65;;;2.50;;
22715;SDS011;11525;51.152;4.456;2022-11-04T14:25:17;7.32;;;1.88;;
22715;SDS011;11525;51.152;4.456;2022-11-04T14:30:51;6.13;;;2.00;;
22715;SDS011;11525;51.152;4.456;2022-11-04T14:35:56;5.75;;;2.45;;
22715;SDS011;11525;51.152;4.456;2022-11-04T14:38:40;4.57;;;1.80;;
22715;SDS011;11525;51.152;4.456;2022-11-04T14:41:16;9.98;;;2.13;;
22715;SDS011;11525;51.152;4.456;2022-11-04T14:43:47;5.47;;;1.83;;
22715;SDS011;11525;51.152;4.456;2022-11-04T14:46:33;6.28;;;2.20;;
22715;SDS011;11525;51.152;4.456;2022-11-04T14:49:05;4.65;;;2.40;;
22715;SDS011;11525;51.152;4.456;2022-11-04T14:51:32;6.78;;;1.98;;
22715;SDS011;11525;51.152;4.456;2022-11-04T14:56:45;5.18;;;1.63;;
22715;SDS011;11525;51.152;4.456;2022-11-04T14:59:19;7.50;;;1.90;;
22715;SDS011;11525;51.152;4.456;2022-11-04T15:01:46;5.32;;;2.10;;
22715;SDS011;11525;51.152;4.456;2022-11-04T15:04:28;3.40;;;1.50;;
22715;SDS011;11525;51.152;4.456;2022-11-04T15:06:55;4.57;;;1.60;;
22715;SDS011;11525;51.152;4.456;2022-11-04T15:09:26;4.93;;;1.90;;
22715;SDS011;11525;51.152;4.456;2022-11-04T15:12:05;4.07;;;1.88;;
22715;SDS011;11525;51.152;4.456;2022-11-04T15:14:53;5.60;;;1.88;;
22715;SDS011;11525;51.152;4.456;2022-11-04T15:17:20;4.63;;;2.05;;
22715;SDS011;11525;51.152;4.456;2022-11-04T15:19:50;6.03;;;2.22;;
22715;SDS011;11525;51.152;4.456;2022-11-04T15:22:18;5.32;;;2.22;;
22715;SDS011;11525;51.152;4.456;2022-11-04T15:24:44;8.07;;;2.17;;
22715;SDS011;11525;51.152;4.456;2022-11-04T15:27:14;8.27;;;2.00;;
22715;SDS011;11525;51.152;4.456;2022-11-04T15:30:00;3.03;;;1.67;;
22715;SDS011;11525;51.152;4.456;2022-11-04T15:32:32;2.58;;;1.58;;
22715;SDS011;11525;51.152;4.456;2022-11-04T15:35:12;7.05;;;1.90;;
22715;SDS011;11525;51.152;4.456;2022-11-04T15:40:35;5.43;;;2.00;;
22715;SDS011;11525;51.152;4.456;2022-11-04T15:43:55;4.25;;;2.10;;
22715;SDS011;11525;51.152;4.456;2022-11-04T15:46:38;2.47;;;1.50;;
22715;SDS011;11525;51.152;4.456;2022-11-04T15:49:17;3.63;;;1.80;;
22715;SDS011;11525;51.152;4.456;2022-11-04T15:55:43;3.17;;;1.95;;
22715;SDS011;11525;51.152;4.456;2022-11-04T15:58:20;5.15;;;1.92;;
22715;SDS011;11525;51.152;4.456;2022-11-04T16:07:29;8.65;;;4.97;;
22715;SDS011;11525;51.152;4.456;2022-11-04T16:10:24;8.48;;;3.88;;
22715;SDS011;11525;51.152;4.456;2022-11-04T16:12:56;7.88;;;3.67;;
22715;SDS011;11525;51.152;4.456;2022-11-04T16:15:31;7.70;;;3.42;;
22715;SDS011;11525;51.152;4.456;2022-11-04T16:17:57;5.50;;;2.63;;
22715;SDS011;11525;51.152;4.456;2022-11-04T16:20:24;5.70;;;2.65;;
22715;SDS011;11525;51.152;4.456;2022-11-04T16:22:58;4.25;;;2.30;;
22715;SDS011;11525;51.152;4.456;2022-11-04T16:25:26;6.15;;;2.03;;
22715;SDS011;11525;51.152;4.456;2022-11-04T16:27:57;3.67;;;2.50;;
22715;SDS011;11525;51.152;4.456;2022-11-04T16:30:25;4.88;;;2.78;;
22715;SDS011;11525;51.152;4.456;2022-11-04T16:32:53;4.57;;;2.85;;
22715;SDS011;11525;51.152;4.456;2022-11-04T16:35:30;7.70;;;2.85;;
22715;SDS011;11525;51.152;4.456;2022-11-04T16:37:58;5.20;;;2.45;;
22715;SDS011;11525;51.152;4.456;2022-11-04T16:40:25;4.53;;;2.35;;
22715;SDS011;11525;51.152;4.456;2022-11-04T16:42:52;4.93;;;2.25;;
22715;SDS011;11525;51.152;4.456;2022-11-04T16:45:25;5.40;;;3.08;;
22715;SDS011;11525;51.152;4.456;2022-11-04T16:47:54;5.68;;;3.13;;
22715;SDS011;11525;51.152;4.456;2022-11-04T16:50:21;5.25;;;3.35;;
22715;SDS011;11525;51.152;4.456;2022-11-04T16:52:48;5.07;;;2.60;;
22715;SDS011;11525;51.152;4.456;2022-11-04T16:55:15;4.78;;;2.20;;
22715;SDS011;11525;51.152;4.456;2022-11-04T16:57:42;5.57;;;3.47;;
22715;SDS011;11525;51.152;4.456;2022-11-04T17:00:12;6.45;;;4.25;;
22715;SDS011;11525;51.152;4.456;2022-11-04T17:02:43;9.05;;;3.83;;
22715;SDS011;11525;51.152;4.456;2022-11-04T17:05:12;8.80;;;4.05;;
22715;SDS011;11525;51.152;4.456;2022-11-04T17:07:38;9.85;;;3.90;;
22715;SDS011;11525;51.152;4.456;2022-11-04T17:10:09;8.43;;;4.35;;
22715;SDS011;11525;51.152;4.456;2022-11-04T17:12:50;7.68;;;4.97;;
22715;SDS011;11525;51.152;4.456;2022-11-04T17:15:16;8.43;;;4.80;;
22715;SDS011;11525;51.152;4.456;2022-11-04T17:17:42;9.45;;;3.95;;
22715;SDS011;11525;51.152;4.456;2022-11-04T17:20:10;6.82;;;4.55;;
22715;SDS011;11525;51.152;4.456;2022-11-04T17:22:38;8.82;;;5.18;;
22715;SDS011;11525;51.152;4.456;2022-11-04T17:25:08;9.27;;;5.13;;
22715;SDS011;11525;51.152;4.456;2022-11-04T17:27:48;6.38;;;4.70;;
22715;SDS011;11525;51.152;4.456;2022-11-04T17:30:15;10.98;;;5.25;;
22715;SDS011;11525;51.152;4.456;2022-11-04T17:32:42;7.95;;;4.93;;
22715;SDS011;11525;51.152;4.456;2022-11-04T17:35:09;10.63;;;6.18;;
22715;SDS011;11525;51.152;4.456;2022-11-04T17:37:35;6.72;;;5.20;;